createdAt,value
2022-08-09T00:00:11.960Z,98323.88
2022-08-09T00:02:49.034Z,98317.94
2022-08-09T00:06:17.559Z,98321.13
2022-08-09T00:08:11.406Z,98325.94
2022-08-09T00:10:58.838Z,98327.03
2022-08-09T00:13:27.214Z,98329.09
2022-08-09T00:15:59.508Z,98329.91
2022-08-09T00:18:35.876Z,98323.44
2022-08-09T00:21:04.991Z,98324.72
2022-08-09T00:23:55.133Z,98327.56
2022-08-09T00:26:29.934Z,98329.16
2022-08-09T00:29:02.213Z,98329.44
2022-08-09T00:31:57.663Z,98326.50
2022-08-09T00:34:19.660Z,98329.91
2022-08-09T00:36:48.914Z,98329.84
2022-08-09T00:40:09.448Z,98330.16
2022-08-09T00:44:19.390Z,98323.59
2022-08-09T00:44:56.108Z,98330.91
2022-08-09T00:47:25.528Z,98325.97
2022-08-09T00:49:56.509Z,98326.06
2022-08-09T00:52:30.514Z,98325.09
2022-08-09T00:55:01.758Z,98327.81
2022-08-09T00:57:34.007Z,98329.50
2022-08-09T01:00:21.331Z,98332.84
2022-08-09T01:02:54.887Z,98330.88
2022-08-09T01:05:53.348Z,98327.69
2022-08-09T01:08:28.232Z,98330.47
2022-08-09T01:11:15.085Z,98334.94
2022-08-09T01:13:59.341Z,98328.06
2022-08-09T01:16:33.338Z,98333.66
2022-08-09T01:19:28.948Z,98336.16
2022-08-09T01:22:37.850Z,98332.72
2022-08-09T01:25:25.955Z,98338.66
2022-08-09T01:27:58.595Z,98337.47
2022-08-09T01:30:28.497Z,98342.63
2022-08-09T01:33:03.669Z,98343.31
2022-08-09T01:35:39.197Z,98337.16
2022-08-09T01:38:15.757Z,98344.53
2022-08-09T01:40:52.376Z,98341.41
2022-08-09T01:43:24.320Z,98345.16
2022-08-09T01:45:58.078Z,98347.41
2022-08-09T01:48:31.364Z,98352.06
2022-08-09T01:51:00.879Z,98351.88
2022-08-09T01:53:41.387Z,98359.84
2022-08-09T01:56:11.978Z,98352.16
2022-08-09T01:58:44.158Z,98357.81
2022-08-09T02:01:18.315Z,98354.41
2022-08-09T02:03:48.756Z,98356.53
2022-08-09T02:06:45.567Z,98359.38
2022-08-09T02:09:42.174Z,98361.56
2022-08-09T02:12:18.005Z,98362.09
2022-08-09T02:14:52.964Z,98369.56
2022-08-09T02:18:09.804Z,98374.59
2022-08-09T02:20:26.421Z,98369.84
2022-08-09T02:23:08.298Z,98379.44
2022-08-09T02:25:42.442Z,98369.34
2022-08-09T02:28:24.082Z,98369.22
2022-08-09T02:30:59.768Z,98373.75
2022-08-09T02:33:37.725Z,98376.28
2022-08-09T02:36:10.558Z,98381.78
2022-08-09T02:38:47.792Z,98384.28
2022-08-09T02:41:21.683Z,98382.25
2022-08-09T02:43:55.593Z,98377.94
2022-08-09T02:46:28.891Z,98380.31
2022-08-09T02:49:02.979Z,98374.16
2022-08-09T02:51:40.249Z,98383.22
2022-08-09T02:54:14.227Z,98380.03
2022-08-09T02:56:51.124Z,98382.03
2022-08-09T02:59:22.734Z,98377.47
2022-08-09T03:02:05.533Z,98375.56
2022-08-09T03:04:35.921Z,98378.00
2022-08-09T03:07:13.878Z,98377.38
2022-08-09T03:09:43.802Z,98378.38
2022-08-09T03:12:24.135Z,98377.06
2022-08-09T03:14:53.048Z,98375.25
2022-08-09T03:17:26.521Z,98375.75
2022-08-09T03:20:03.376Z,98375.84
2022-08-09T03:22:42.280Z,98372.59
2022-08-09T03:25:26.570Z,98368.16
2022-08-09T03:28:03.354Z,98371.88
2022-08-09T03:30:33.405Z,98368.97
2022-08-09T03:33:13.352Z,98378.03
2022-08-09T03:36:13.414Z,98379.94
2022-08-09T03:38:41.612Z,98378.63
2022-08-09T03:41:10.454Z,98374.00
2022-08-09T03:44:03.285Z,98370.78
2022-08-09T03:46:32.017Z,98375.81
2022-08-09T03:49:07.883Z,98381.66
2022-08-09T03:51:55.267Z,98373.41
2022-08-09T03:54:29.214Z,98384.28
2022-08-09T03:56:58.477Z,98382.41
2022-08-09T03:59:53.494Z,98377.03
2022-08-09T04:02:15.080Z,98389.53
2022-08-09T04:04:49.329Z,98389.94
2022-08-09T04:07:19.139Z,98386.53
2022-08-09T04:09:50.188Z,98381.91
2022-08-09T04:12:39.163Z,98398.25
2022-08-09T04:15:16.989Z,98398.13
2022-08-09T04:17:57.765Z,98385.69
2022-08-09T04:20:27.383Z,98380.66
2022-08-09T04:22:57.121Z,98372.31
2022-08-09T04:25:27.329Z,98378.03
2022-08-09T04:28:02.518Z,98375.97
2022-08-09T04:30:32.376Z,98374.72
2022-08-09T04:33:01.275Z,98368.88
2022-08-09T04:35:32.867Z,98376.28
2022-08-09T04:38:03.559Z,98380.44
2022-08-09T04:40:45.744Z,98383.59
2022-08-09T04:43:14.005Z,98387.59
2022-08-09T04:45:53.702Z,98391.28
2022-08-09T04:48:23.847Z,98392.03
2022-08-09T04:51:02.786Z,98395.91
2022-08-09T04:53:31.510Z,98403.59
2022-08-09T04:56:00.289Z,98397.13
2022-08-09T04:58:29.072Z,98409.06
2022-08-09T05:01:00.323Z,98396.81
2022-08-09T05:03:40.636Z,98409.19
2022-08-09T05:06:27.195Z,98407.19
2022-08-09T05:09:00.451Z,98408.69
2022-08-09T05:11:32.518Z,98414.50
2022-08-09T05:14:06.057Z,98413.34
2022-08-09T05:16:58.172Z,98409.63
2022-08-09T05:19:25.769Z,98409.28
2022-08-09T05:21:56.535Z,98410.75
2022-08-09T05:24:24.924Z,98421.25
2022-08-09T05:26:53.437Z,98424.09
2022-08-09T05:29:23.998Z,98415.53
2022-08-09T05:31:57.667Z,98410.88
2022-08-09T05:34:31.289Z,98415.69
2022-08-09T05:37:06.233Z,98424.59
2022-08-09T05:39:42.587Z,98427.13
2022-08-09T05:42:17.345Z,98421.56
2022-08-09T05:44:50.817Z,98428.63
2022-08-09T05:47:19.631Z,98435.47
2022-08-09T05:50:30.196Z,98435.38
2022-08-09T05:52:39.682Z,98429.13
2022-08-09T05:55:09.785Z,98433.31
2022-08-09T05:57:55.548Z,98439.31
2022-08-09T06:00:25.736Z,98436.47
2022-08-09T06:02:56.805Z,98445.25
2022-08-09T06:05:50.532Z,98444.41
2022-08-09T06:08:19.712Z,98451.44
2022-08-09T06:10:53.173Z,98456.75
2022-08-09T06:13:21.241Z,98455.78
2022-08-09T06:15:51.783Z,98458.06
2022-08-09T06:18:24.207Z,98454.97
2022-08-09T06:20:57.584Z,98461.16
2022-08-09T06:23:57.167Z,98467.97
2022-08-09T06:26:20.938Z,98465.72
2022-08-09T06:29:00.313Z,98463.66
2022-08-09T06:31:39.254Z,98465.47
2022-08-09T06:34:22.986Z,98460.66
2022-08-09T06:36:59.264Z,98463.56
2022-08-09T06:39:48.499Z,98458.66
2022-08-09T06:42:19.782Z,98461.03
2022-08-09T06:44:51.870Z,98464.06
2022-08-09T06:47:23.676Z,98461.03
2022-08-09T06:50:14.782Z,98465.31
2022-08-09T06:52:45.905Z,98458.09
2022-08-09T06:55:17.674Z,98461.22
2022-08-09T06:58:01.448Z,98459.34
2022-08-09T07:00:49.453Z,98462.38
2022-08-09T07:03:27.775Z,98461.00
2022-08-09T07:06:04.606Z,98463.53
2022-08-09T07:08:35.295Z,98461.66
2022-08-09T07:11:07.290Z,98460.47
2022-08-09T07:14:04.062Z,98471.50
2022-08-09T07:16:42.173Z,98474.75
2022-08-09T07:19:15.570Z,98471.75
2022-08-09T07:21:57.287Z,98472.47
2022-08-09T07:24:31.478Z,98468.78
2022-08-09T07:27:03.392Z,98456.97
2022-08-09T07:29:42.921Z,98463.41
2022-08-09T07:32:11.250Z,98470.19
2022-08-09T07:34:39.058Z,98482.38
2022-08-09T07:37:15.536Z,98473.03
2022-08-09T07:39:43.997Z,98470.72
2022-08-09T07:42:16.378Z,98476.97
2022-08-09T07:44:52.164Z,98469.34
2022-08-09T07:47:23.165Z,98470.34
2022-08-09T07:50:04.661Z,98471.88
2022-08-09T07:52:36.613Z,98469.78
2022-08-09T07:55:09.613Z,98477.97
2022-08-09T07:57:47.069Z,98476.47
2022-08-09T08:00:20.780Z,98470.66
2022-08-09T08:03:05.217Z,98468.13
2022-08-09T08:05:53.579Z,98464.06
2022-08-09T08:09:00.669Z,98469.78
2022-08-09T08:12:09.661Z,98465.88
2022-08-09T08:14:01.749Z,98463.31
2022-08-09T08:16:31.802Z,98459.91
2022-08-09T08:19:03.141Z,98465.75
2022-08-09T08:21:32.501Z,98466.00
2022-08-09T08:24:01.045Z,98452.38
2022-08-09T08:26:54.763Z,98452.78
2022-08-09T08:29:20.069Z,98457.38
2022-08-09T08:32:04.518Z,98457.69
2022-08-09T08:34:36.503Z,98449.53
2022-08-09T08:37:05.156Z,98448.75
2022-08-09T08:39:43.413Z,98454.84
2022-08-09T08:42:12.457Z,98449.91
2022-08-09T08:44:43.925Z,98454.53
2022-08-09T08:47:16.107Z,98460.84
2022-08-09T08:49:48.375Z,98452.41
2022-08-09T08:55:07.653Z,98457.19
2022-08-09T08:57:37.261Z,98457.63
2022-08-09T09:00:17.328Z,98456.91
2022-08-09T09:03:08.773Z,98447.56
2022-08-09T09:06:00.787Z,98448.19
2022-08-09T09:08:37.720Z,98448.66
2022-08-09T09:11:08.531Z,98439.09
2022-08-09T09:13:47.365Z,98448.28
2022-08-09T09:16:30.369Z,98446.28
2022-08-09T09:19:22.594Z,98436.19
2022-08-09T09:22:04.985Z,98438.09
2022-08-09T09:24:35.326Z,98441.66
2022-08-09T09:27:07.112Z,98454.25
2022-08-09T09:30:13.870Z,98434.19
2022-08-09T09:32:35.131Z,98463.44
2022-08-09T09:35:09.575Z,98437.38
2022-08-09T09:37:40.702Z,98439.75
2022-08-09T09:40:11.713Z,98435.03
2022-08-09T09:42:43.059Z,98434.53
2022-08-09T09:45:25.770Z,98435.06
2022-08-09T09:47:58.734Z,98449.91
2022-08-09T09:50:49.304Z,98435.81
2022-08-09T09:53:34.385Z,98456.19
2022-08-09T09:56:30.976Z,98437.38
2022-08-09T09:58:57.453Z,98430.59
2022-08-09T10:01:31.401Z,98432.34
2022-08-09T10:04:16.309Z,98441.84
2022-08-09T10:06:52.063Z,98446.75
2022-08-09T10:09:24.050Z,98462.38
2022-08-09T10:12:12.851Z,98434.66
2022-08-09T10:14:48.452Z,98425.41
2022-08-09T10:17:40.045Z,98431.25
2022-08-09T10:20:27.747Z,98448.38
2022-08-09T10:23:17.254Z,98431.00
2022-08-09T10:26:06.266Z,98419.75
2022-08-09T10:28:35.899Z,98405.31
2022-08-09T10:34:10.344Z,98429.47
2022-08-09T10:36:43.815Z,98420.88
2022-08-09T10:39:16.015Z,98417.72
2022-08-09T10:41:48.009Z,98406.13
2022-08-09T10:44:19.280Z,98429.28
2022-08-09T10:48:16.872Z,98431.28
2022-08-09T10:50:14.607Z,98411.97
2022-08-09T10:53:10.382Z,98402.94
2022-08-09T10:55:58.216Z,98402.09
2022-08-09T10:58:33.557Z,98409.19
2022-08-09T11:03:03.250Z,98420.41
2022-08-09T11:04:27.778Z,98422.56
2022-08-09T11:07:57.217Z,98412.00
2022-08-09T11:10:54.721Z,98408.13
2022-08-09T11:13:51.295Z,98397.22
2022-08-09T11:16:38.497Z,98401.78
2022-08-09T11:19:10.525Z,98404.06
2022-08-09T11:22:10.586Z,98401.72
2022-08-09T11:25:08.434Z,98393.03
2022-08-09T11:28:05.433Z,98391.16
2022-08-09T11:30:35.796Z,98399.28
2022-08-09T11:33:06.752Z,98391.63
2022-08-09T11:35:49.457Z,98390.66
2022-08-09T11:38:22.331Z,98381.22
2022-08-09T11:40:57.381Z,98371.44
2022-08-09T11:43:43.058Z,98369.16
2022-08-09T11:46:12.187Z,98375.56
2022-08-09T11:48:51.182Z,98369.06
2022-08-09T11:53:00.983Z,98372.84
2022-08-09T11:54:28.007Z,98377.84
2022-08-09T11:57:59.674Z,98366.75
2022-08-09T12:00:26.261Z,98375.09
2022-08-09T12:02:56.505Z,98371.47
2022-08-09T12:05:37.655Z,98370.94
2022-08-09T12:08:12.514Z,98364.06
2022-08-09T12:10:53.057Z,98360.06
2022-08-09T12:14:07.508Z,98353.91
2022-08-09T12:16:37.294Z,98346.22
2022-08-09T12:19:10.063Z,98347.91
2022-08-09T12:21:50.385Z,98364.66
2022-08-09T12:24:24.423Z,98351.03
2022-08-09T12:29:13.078Z,98352.19
2022-08-09T12:30:01.608Z,98343.84
2022-08-09T12:32:44.249Z,98345.09
2022-08-09T12:35:19.450Z,98354.13
2022-08-09T12:37:52.222Z,98343.59
2022-08-09T12:40:26.822Z,98340.59
2022-08-09T12:42:56.117Z,98343.63
2022-08-09T12:45:34.704Z,98338.28
2022-08-09T12:48:19.966Z,98344.69
2022-08-09T12:50:57.134Z,98337.47
2022-08-09T12:53:35.036Z,98337.41
2022-08-09T12:56:43.283Z,98336.06
2022-08-09T12:59:10.563Z,98341.03
2022-08-09T13:01:48.969Z,98338.22
2022-08-09T13:04:38.181Z,98339.53
2022-08-09T13:07:16.371Z,98331.56
2022-08-09T13:09:55.488Z,98332.41
2022-08-09T13:12:28.195Z,98329.97
2022-08-09T13:15:07.217Z,98327.91
2022-08-09T13:18:03.544Z,98319.25
2022-08-09T13:20:37.458Z,98321.88
2022-08-09T13:24:15.830Z,98315.38
2022-08-09T13:26:39.329Z,98320.50
2022-08-09T13:29:09.593Z,98322.63
2022-08-09T13:32:19.257Z,98321.03
2022-08-09T13:34:44.085Z,98303.56
2022-08-09T13:37:50.751Z,98306.97
2022-08-09T13:41:46.067Z,98313.16
2022-08-09T13:42:53.662Z,98312.28
2022-08-09T13:45:32.641Z,98305.13
2022-08-09T13:48:10.929Z,98305.84
2022-08-09T13:50:39.276Z,98299.56
2022-08-09T13:53:09.051Z,98301.13
2022-08-09T13:55:38.152Z,98299.84
2022-08-09T13:58:08.059Z,98303.28
2022-08-09T14:00:50.385Z,98289.03
2022-08-09T14:04:04.879Z,98298.38
2022-08-09T14:06:19.342Z,98301.75
2022-08-09T14:08:55.634Z,98293.91
2022-08-09T14:11:23.452Z,98306.03
2022-08-09T14:14:23.935Z,98306.59
2022-08-09T14:16:40.384Z,98297.66
2022-08-09T14:19:08.404Z,98300.91
2022-08-09T14:21:36.693Z,98304.81
2022-08-09T14:24:18.782Z,98303.41
2022-08-09T14:26:54.981Z,98303.13
2022-08-09T14:30:18.661Z,98300.38
2022-08-09T14:32:13.291Z,98301.94
2022-08-09T14:34:45.060Z,98306.78
2022-08-09T14:37:13.173Z,98307.91
2022-08-09T14:39:46.438Z,98302.19
2022-08-09T14:42:39.232Z,98300.94
2022-08-09T14:46:46.714Z,98297.00
2022-08-09T14:48:00.359Z,98295.03
2022-08-09T14:50:32.661Z,98299.63
2022-08-09T14:53:01.237Z,98296.03
2022-08-09T14:55:32.543Z,98293.25
2022-08-09T14:58:02.850Z,98296.66
2022-08-09T15:00:31.672Z,98292.31
2022-08-09T15:03:00.080Z,98291.69
2022-08-09T15:05:29.488Z,98297.72
2022-08-09T15:07:58.177Z,98293.25
2022-08-09T15:10:26.748Z,98288.97
2022-08-09T15:12:56.814Z,98287.56
2022-08-09T15:15:28.580Z,98284.28
2022-08-09T15:17:58.567Z,98280.66
2022-08-09T15:22:00.453Z,98272.72
2022-08-09T15:24:03.094Z,98298.06
2022-08-09T15:26:02.931Z,98286.47
2022-08-09T15:28:34.731Z,98294.31
2022-08-09T15:31:10.000Z,98287.69
2022-08-09T15:34:17.190Z,98285.53
2022-08-09T15:36:30.104Z,98290.94
2022-08-09T15:39:00.119Z,98282.13
2022-08-09T15:41:31.284Z,98278.91
2022-08-09T15:44:01.905Z,98275.28
2022-08-09T15:46:34.481Z,98276.56
2022-08-09T15:49:21.792Z,98278.63
2022-08-09T15:52:04.015Z,98285.41
2022-08-09T15:54:48.991Z,98280.16
2022-08-09T15:57:19.061Z,98270.19
2022-08-09T16:00:06.987Z,98284.50
2022-08-09T16:02:35.821Z,98277.94
2022-08-09T16:05:06.741Z,98267.50
2022-08-09T16:07:39.452Z,98263.19
2022-08-09T16:10:38.383Z,98265.91
2022-08-09T16:13:03.415Z,98270.34
2022-08-09T16:16:10.446Z,98283.94
2022-08-09T16:18:21.335Z,98277.00
2022-08-09T16:20:50.556Z,98269.19
2022-08-09T16:23:19.873Z,98266.91
2022-08-09T16:25:49.768Z,98258.03
2022-08-09T16:28:17.758Z,98267.28
2022-08-09T16:30:58.733Z,98260.63
2022-08-09T16:33:27.521Z,98266.16
2022-08-09T16:36:02.096Z,98272.56
2022-08-09T16:38:32.384Z,98271.84
2022-08-09T16:41:04.053Z,98264.22
2022-08-09T16:43:32.657Z,98263.09
2022-08-09T16:46:02.197Z,98265.00
2022-08-09T16:48:39.567Z,98264.63
2022-08-09T16:51:18.957Z,98265.09
2022-08-09T16:54:22.419Z,98267.91
2022-08-09T16:56:37.517Z,98255.53
2022-08-09T16:59:17.153Z,98279.44
2022-08-09T17:01:51.395Z,98306.00
2022-08-09T17:04:28.005Z,98273.34
2022-08-09T17:08:41.464Z,98276.09
2022-08-09T17:09:47.333Z,98279.66
2022-08-09T17:12:16.022Z,98282.81
2022-08-09T17:14:47.630Z,98281.13
2022-08-09T17:17:27.223Z,98289.94
2022-08-09T17:20:29.903Z,98287.03
2022-08-09T17:22:50.057Z,98280.66
2022-08-09T17:25:22.072Z,98274.44
2022-08-09T17:27:54.549Z,98284.31
2022-08-09T17:30:25.791Z,98279.50
2022-08-09T17:33:00.684Z,98288.28
2022-08-09T17:35:35.778Z,98286.28
2022-08-09T17:38:30.595Z,98278.72
2022-08-09T17:40:57.957Z,98287.81
2022-08-09T17:43:34.270Z,98284.66
2022-08-09T17:46:08.983Z,98290.22
2022-08-09T17:48:46.738Z,98289.81
2022-08-09T17:51:21.494Z,98299.38
2022-08-09T17:53:53.018Z,98298.84
2022-08-09T17:56:27.403Z,98312.34
2022-08-09T17:58:56.732Z,98313.47
2022-08-09T18:01:24.582Z,98307.84
2022-08-09T18:03:54.896Z,98313.03
2022-08-09T18:06:30.955Z,98312.66
2022-08-09T18:08:59.866Z,98309.88
2022-08-09T18:11:27.972Z,98318.50
2022-08-09T18:14:03.349Z,98320.88
2022-08-09T18:16:36.061Z,98321.09
2022-08-09T18:20:56.143Z,98316.34
2022-08-09T18:22:13.295Z,98321.91
2022-08-09T18:24:46.022Z,98320.91
2022-08-09T18:27:49.364Z,98326.03
2022-08-09T18:30:40.268Z,98322.41
2022-08-09T18:32:54.662Z,98326.22
2022-08-09T18:35:58.337Z,98325.38
2022-08-09T18:38:13.128Z,98322.47
2022-08-09T18:40:41.087Z,98325.69
2022-08-09T18:43:08.953Z,98329.91
2022-08-09T18:46:51.089Z,98324.97
2022-08-09T18:48:30.126Z,98326.19
2022-08-09T18:51:02.166Z,98334.84
2022-08-09T18:53:56.980Z,98332.19
2022-08-09T18:56:20.062Z,98337.34
2022-08-09T18:58:56.440Z,98348.59
2022-08-09T19:01:24.868Z,98349.66
2022-08-09T19:04:06.311Z,98356.84
2022-08-09T19:06:38.527Z,98355.06
2022-08-09T19:09:07.653Z,98355.59
2022-08-09T19:11:39.770Z,98355.22
2022-08-09T19:14:07.753Z,98369.00
2022-08-09T19:16:38.057Z,98366.53
2022-08-09T19:19:21.500Z,98378.47
2022-08-09T19:22:04.837Z,98380.50
2022-08-09T19:24:38.606Z,98380.16
2022-08-09T19:27:23.261Z,98373.56
2022-08-09T19:30:23.239Z,98380.63
2022-08-09T19:32:39.099Z,98394.72
2022-08-09T19:35:08.096Z,98390.81
2022-08-09T19:37:54.602Z,98388.13
2022-08-09T19:40:34.087Z,98380.47
2022-08-09T19:43:03.874Z,98390.34
2022-08-09T19:45:39.243Z,98391.53
2022-08-09T19:48:10.801Z,98389.91
2022-08-09T19:50:49.206Z,98401.44
2022-08-09T19:53:21.113Z,98405.78
2022-08-09T19:56:03.014Z,98404.56
2022-08-09T19:58:34.226Z,98407.81
2022-08-09T20:01:02.041Z,98409.25
2022-08-09T20:04:17.443Z,98406.03
2022-08-09T20:06:23.853Z,98413.16
2022-08-09T20:08:59.856Z,98423.16
2022-08-09T20:11:43.381Z,98417.56
2022-08-09T20:14:16.945Z,98415.75
2022-08-09T20:16:53.750Z,98416.13
2022-08-09T20:19:48.175Z,98422.75
2022-08-09T20:22:14.305Z,98420.09
2022-08-09T20:24:53.429Z,98422.94
2022-08-09T20:27:22.848Z,98419.47
2022-08-09T20:29:52.611Z,98421.41
2022-08-09T20:32:30.727Z,98426.97
2022-08-09T20:35:02.328Z,98428.50
2022-08-09T20:37:37.901Z,98431.69
2022-08-09T20:40:26.833Z,98433.31
2022-08-09T20:42:59.799Z,98440.84
2022-08-09T20:45:59.169Z,98444.50
2022-08-09T20:48:25.623Z,98434.88
2022-08-09T20:50:58.621Z,98440.03
2022-08-09T20:53:35.444Z,98441.13
2022-08-09T20:56:09.438Z,98446.19
2022-08-09T20:58:49.967Z,98441.72
2022-08-09T21:01:35.199Z,98441.00
2022-08-09T21:05:48.605Z,98442.47
2022-08-09T21:06:54.989Z,98447.78
2022-08-09T21:09:32.712Z,98450.78
2022-08-09T21:14:42.569Z,98453.00
2022-08-09T21:18:21.163Z,98452.00
2022-08-09T21:20:22.435Z,98449.59
2022-08-09T21:22:52.473Z,98448.69
2022-08-09T21:25:43.734Z,98448.94
2022-08-09T21:28:34.377Z,98460.44
2022-08-09T21:31:13.734Z,98456.91
2022-08-09T21:33:49.474Z,98468.50
2022-08-09T21:36:20.377Z,98462.28
2022-08-09T21:38:51.112Z,98469.03
2022-08-09T21:42:04.148Z,98457.91
2022-08-09T21:44:33.701Z,98457.31
2022-08-09T21:47:03.848Z,98458.50
2022-08-09T21:49:40.032Z,98463.53
2022-08-09T21:52:14.459Z,98467.66
2022-08-09T21:54:46.378Z,98460.19
2022-08-09T21:57:37.720Z,98457.88
2022-08-09T22:00:11.190Z,98459.47
2022-08-09T22:02:40.014Z,98456.13
2022-08-09T22:05:22.694Z,98468.38
2022-08-09T22:07:53.281Z,98459.78
2022-08-09T22:10:23.953Z,98458.41
2022-08-09T22:12:52.855Z,98464.66
2022-08-09T22:15:33.442Z,98464.00
2022-08-09T22:18:03.478Z,98458.69
2022-08-09T22:20:31.572Z,98461.13
2022-08-09T22:22:59.691Z,98460.97
2022-08-09T22:26:05.801Z,98472.97
2022-08-09T22:28:29.427Z,98468.78
2022-08-09T22:31:02.132Z,98472.66
2022-08-09T22:33:48.518Z,98470.22
2022-08-09T22:36:19.074Z,98471.84
2022-08-09T22:38:48.216Z,98470.22
2022-08-09T22:41:16.125Z,98468.72
2022-08-09T22:44:03.040Z,98472.28
2022-08-09T22:48:14.266Z,98472.72
2022-08-09T22:49:21.895Z,98473.13
2022-08-09T22:51:56.884Z,98468.16
2022-08-09T22:54:27.309Z,98467.06
2022-08-09T22:56:57.056Z,98471.03
2022-08-09T22:59:56.023Z,98471.56
2022-08-09T23:02:20.152Z,98474.91
2022-08-09T23:04:54.060Z,98465.72
2022-08-09T23:08:27.792Z,98470.31
2022-08-09T23:10:29.062Z,98463.94
2022-08-09T23:12:57.033Z,98465.94
2022-08-09T23:15:25.182Z,98465.00
2022-08-09T23:17:54.297Z,98467.28
2022-08-09T23:20:22.614Z,98465.19
2022-08-09T23:22:50.539Z,98470.56
2022-08-09T23:25:18.630Z,98465.91
2022-08-09T23:27:57.527Z,98459.72
2022-08-09T23:30:34.447Z,98457.47
2022-08-09T23:33:03.629Z,98462.00
2022-08-09T23:35:31.695Z,98457.22
2022-08-09T23:38:19.885Z,98449.75
2022-08-09T23:40:51.177Z,98459.16
2022-08-09T23:43:19.075Z,98451.09
2022-08-09T23:45:46.984Z,98451.44
2022-08-09T23:48:16.926Z,98455.63
2022-08-09T23:50:44.754Z,98457.06
2022-08-09T23:53:12.535Z,98460.81
2022-08-09T23:55:46.238Z,98460.47
2022-08-09T23:58:26.033Z,98457.06
